Time;durP1;ratioP1;P1;durP2;ratioP2;P2;SDS_P1;SDS_P2;PMS_P1;PMS_P2;Temp;Humidity;BMP_temperature;BMP_pressure;BME280_temperature;BME280_humidity;BME280_pressure;Samples;Min_cycle;Max_cycle;Signal;HPM_P1;HPM_P2
2021/07/16 00:01:38;;;;;;;6.25;3.17;;;;;;;21.85;64.48;101961.63;5015974;28;20033;-77
2021/07/16 00:04:03;;;;;;;5.23;3.10;;;;;;;21.84;63.96;101962.56;5014856;28;20033;-75
2021/07/16 00:06:29;;;;;;;5.78;3.33;;;;;;;21.83;64.37;101964.38;5015277;28;20295;-75
2021/07/16 00:08:57;;;;;;;6.22;3.38;;;;;;;21.83;64.49;101963.56;5015589;28;20026;-77
2021/07/16 00:11:22;;;;;;;6.15;3.20;;;;;;;21.82;64.13;101956.56;5014443;28;20045;-76
2021/07/16 00:13:48;;;;;;;6.72;3.65;;;;;;;21.83;64.29;101960.91;5015962;28;20528;-76
2021/07/16 00:16:14;;;;;;;6.35;3.10;;;;;;;21.76;63.94;101954.38;5015090;28;20034;-75
2021/07/16 00:18:39;;;;;;;5.40;3.28;;;;;;;21.82;64.10;101961.84;5014701;28;20029;-76
2021/07/16 00:21:05;;;;;;;5.72;2.88;;;;;;;21.81;63.90;101968.13;5015584;28;20037;-77
2021/07/16 00:23:30;;;;;;;5.13;3.17;;;;;;;21.81;63.79;101968.13;5014972;28;20076;-77
2021/07/16 00:25:56;;;;;;;7.15;3.05;;;;;;;21.79;64.22;101962.94;5014693;28;20085;-75
2021/07/16 00:28:22;;;;;;;5.47;3.22;;;;;;;21.80;64.11;101966.44;5014946;28;20101;-75
2021/07/16 00:30:48;;;;;;;5.75;3.33;;;;;;;21.79;64.06;101962.94;5014526;28;20072;-76
2021/07/16 00:33:13;;;;;;;5.22;3.03;;;;;;;21.78;63.88;101969.22;5014955;28;20065;-75
2021/07/16 00:35:39;;;;;;;5.82;3.20;;;;;;;21.78;64.27;101966.56;5014901;28;20041;-76
2021/07/16 00:38:05;;;;;;;5.45;3.30;;;;;;;21.80;64.22;101974.41;5014613;28;20029;-76
2021/07/16 00:40:36;;;;;;;6.40;3.17;;;;;;;21.78;64.02;101973.66;5014366;28;20449;-75
2021/07/16 00:43:01;;;;;;;5.97;2.90;;;;;;;21.78;64.14;101977.19;5014981;28;20026;-76
2021/07/16 00:45:27;;;;;;;5.82;2.95;;;;;;;21.77;64.13;101978.13;5013306;28;20032;-76
2021/07/16 00:47:52;;;;;;;5.30;3.10;;;;;;;21.77;64.09;101974.66;5015087;28;20054;-76
2021/07/16 00:50:24;;;;;;;5.75;3.30;;;;;;;21.77;63.97;101978.13;5014591;28;20492;-76
2021/07/16 00:52:50;;;;;;;4.93;3.03;;;;;;;21.77;64.22;101970.19;5014605;28;20385;-75
2021/07/16 00:55:16;;;;;;;5.65;3.00;;;;;;;21.77;63.97;101977.31;5014206;28;20118;-75
2021/07/16 00:57:42;;;;;;;6.10;3.50;;;;;;;21.76;63.94;101984.41;5014680;28;20026;-76
2021/07/16 01:00:10;;;;;;;6.13;3.05;;;;;;;21.76;63.97;101978.25;5013848;28;20052;-75
2021/07/16 01:02:44;;;;;;;6.63;3.55;;;;;;;21.74;63.98;101984.53;5014238;28;20053;-76
2021/07/16 01:05:13;;;;;;;5.75;3.17;;;;;;;21.76;64.07;101980.91;5014723;28;20026;-76
2021/07/16 01:07:39;;;;;;;5.72;3.03;;;;;;;21.75;63.82;101980.09;5013983;28;20034;-76
2021/07/16 01:10:16;;;;;;;5.82;3.22;;;;;;;21.73;64.08;101974.06;5015197;28;20032;-76
2021/07/16 01:12:42;;;;;;;4.95;2.80;;;;;;;21.76;64.16;101983.56;5017872;28;20034;-76
2021/07/16 01:15:10;;;;;;;5.47;3.03;;;;;;;21.73;63.99;101974.06;5017582;28;20026;-76
2021/07/16 01:17:36;;;;;;;6.43;3.17;;;;;;;21.73;64.03;101977.53;5016618;28;20026;-77
2021/07/16 01:20:05;;;;;;;6.30;3.20;;;;;;;21.73;63.95;101979.38;5016030;28;20044;-76
2021/07/16 01:22:36;;;;;;;5.65;3.10;;;;;;;21.70;64.07;101975.13;5016142;28;20026;-76
2021/07/16 01:25:07;;;;;;;5.50;2.85;;;;;;;21.72;64.02;101978.50;5015549;28;20466;-76
2021/07/16 01:27:32;;;;;;;6.68;3.38;;;;;;;21.71;63.70;101978.63;5014261;28;20108;-77
2021/07/16 01:30:13;;;;;;;4.65;2.70;;;;;;;21.72;63.77;101981.16;5016272;28;20462;-77
2021/07/16 01:32:40;;;;;;;7.85;3.28;;;;;;;21.72;63.79;101983.81;5017768;28;20018;-76
2021/07/16 01:35:06;;;;;;;7.70;3.20;;;;;;;21.72;63.78;101986.47;5018384;28;20049;-77
2021/07/16 01:37:32;;;;;;;5.22;2.80;;;;;;;21.71;63.79;101981.28;5018701;28;20026;-76
2021/07/16 01:40:03;;;;;;;5.55;2.63;;;;;;;21.69;63.57;101981.41;5019819;28;20477;-76
2021/07/16 01:42:40;;;;;;;5.65;2.97;;;;;;;21.71;63.65;101984.78;5018780;28;20026;-76
2021/07/16 01:45:10;;;;;;;5.82;3.40;;;;;;;21.71;63.79;101978.63;5019081;28;20034;-76
2021/07/16 01:47:37;;;;;;;6.53;3.00;;;;;;;21.70;63.92;101979.59;5017685;28;20038;-77
2021/07/16 01:50:05;;;;;;;5.07;2.78;;;;;;;21.70;63.75;101976.94;5017689;28;20025;-77
2021/07/16 01:52:39;;;;;;;5.30;3.00;;;;;;;21.68;63.72;101977.06;5017939;28;20025;-76
2021/07/16 01:55:05;;;;;;;4.53;2.70;;;;;;;21.66;63.62;101972.84;5017988;28;20025;-76
2021/07/16 01:57:31;;;;;;;6.72;2.90;;;;;;;21.69;63.68;101986.69;5018722;28;20026;-77
2021/07/16 01:59:56;;;;;;;4.68;2.83;;;;;;;21.68;63.99;101984.16;5017327;28;20033;-76
2021/07/16 02:02:22;;;;;;;6.75;2.85;;;;;;;21.69;63.70;101989.34;5015595;28;20025;-76
2021/07/16 02:04:54;;;;;;;5.40;2.90;;;;;;;21.69;63.74;101985.88;5017038;28;20096;-75
2021/07/16 02:07:19;;;;;;;5.13;2.70;;;;;;;21.68;63.66;101989.47;5017532;28;20034;-76
2021/07/16 02:09:44;;;;;;;5.35;2.90;;;;;;;21.66;63.69;101978.97;5018119;28;20100;-76
2021/07/16 02:12:10;;;;;;;5.85;3.13;;;;;;;21.67;63.49;101982.50;5018549;28;20101;-76
2021/07/16 02:14:35;;;;;;;4.97;2.75;;;;;;;21.67;63.77;101993.94;5016475;28;20556;-77
2021/07/16 02:17:00;;;;;;;5.45;2.85;;;;;;;21.66;63.89;101992.25;5015182;28;20022;-76
2021/07/16 02:19:27;;;;;;;5.00;2.70;;;;;;;21.66;63.74;101988.75;5017761;28;20029;-77
2021/07/16 02:21:52;;;;;;;5.40;2.90;;;;;;;21.65;63.57;101989.72;5019586;28;20029;-75
2021/07/16 02:24:21;;;;;;;7.57;3.13;;;;;;;21.64;63.93;101983.56;5015497;28;20480;-77
2021/07/16 02:26:46;;;;;;;5.25;2.88;;;;;;;21.65;63.72;101977.31;5016182;28;20041;-75
2021/07/16 02:29:11;;;;;;;5.82;3.35;;;;;;;21.65;63.58;101985.28;5016582;28;20025;-76
2021/07/16 02:31:37;;;;;;;5.03;3.03;;;;;;;21.65;63.93;101992.38;5015861;28;20029;-76
2021/07/16 02:34:03;;;;;;;5.13;2.58;;;;;;;21.65;63.77;101995.03;5017284;28;20048;-76
2021/07/16 02:36:28;;;;;;;5.68;2.72;;;;;;;21.64;63.64;101991.53;5016858;28;20018;-76
2021/07/16 02:38:53;;;;;;;5.40;2.60;;;;;;;21.63;63.78;101999.59;5016370;28;20042;-76
2021/07/16 02:41:19;;;;;;;7.47;3.20;;;;;;;21.60;64.03;101999.84;5017040;28;20037;-75
2021/07/16 02:43:44;;;;;;;4.95;2.95;;;;;;;21.63;63.63;102008.41;5016926;28;20132;-76
2021/07/16 02:46:13;;;;;;;5.45;3.10;;;;;;;21.63;63.86;102003.09;5015371;28;20054;-75
2021/07/16 02:48:40;;;;;;;5.20;2.72;;;;;;;21.62;63.70;102008.53;5012856;28;20025;-75
2021/07/16 02:51:06;;;;;;;4.68;2.75;;;;;;;21.63;63.80;102007.56;5013334;28;20026;-76
2021/07/16 02:53:31;;;;;;;5.47;3.00;;;;;;;21.62;63.54;102008.53;5012184;28;20346;-76
2021/07/16 02:55:56;;;;;;;7.43;3.08;;;;;;;21.62;63.54;102009.38;5014414;28;20034;-76
2021/07/16 02:58:22;;;;;;;5.13;2.83;;;;;;;21.62;63.72;102005.88;5012905;28;20068;-76
2021/07/16 03:00:47;;;;;;;5.47;2.90;;;;;;;21.61;63.66;102010.34;5014256;28;20026;-77
2021/07/16 03:03:13;;;;;;;6.40;3.20;;;;;;;21.60;63.61;102011.28;5012466;28;20026;-77
2021/07/16 03:05:38;;;;;;;5.63;3.05;;;;;;;21.62;63.72;102011.16;5011631;28;20041;-74
2021/07/16 03:08:09;;;;;;;6.70;3.17;;;;;;;21.61;63.54;102012.16;5012670;28;20062;-75
2021/07/16 03:10:45;;;;;;;6.00;3.28;;;;;;;21.61;63.62;102005.03;5012288;28;20105;-75
2021/07/16 03:13:13;;;;;;;5.85;3.20;;;;;;;21.61;63.62;102015.66;5011960;28;20018;-74
2021/07/16 03:15:39;;;;;;;5.65;3.05;;;;;;;21.60;63.52;102010.44;5012103;28;20022;-75
2021/07/16 03:18:07;;;;;;;5.63;2.92;;;;;;;21.61;63.19;102009.50;5012470;28;20084;-75
2021/07/16 03:20:44;;;;;;;6.20;3.00;;;;;;;21.60;63.45;102002.50;5011494;28;20160;-74
2021/07/16 03:23:12;;;;;;;6.10;3.15;;;;;;;21.61;63.51;102012.16;5012631;28;20053;-75
2021/07/16 03:25:38;;;;;;;5.20;2.65;;;;;;;21.61;63.20;102004.19;5011958;28;20025;-75
2021/07/16 03:28:05;;;;;;;5.97;3.20;;;;;;;21.59;63.39;102004.31;5012304;28;20520;-76
2021/07/16 03:30:31;;;;;;;6.80;2.90;;;;;;;21.58;63.34;102005.28;5015660;28;20033;-76
2021/07/16 03:32:57;;;;;;;6.78;3.28;;;;;;;21.59;63.23;102008.75;5016015;28;20105;-76
2021/07/16 03:35:24;;;;;;;5.72;3.20;;;;;;;21.57;63.63;102008.91;5015179;28;20018;-74
2021/07/16 03:37:49;;;;;;;7.07;2.72;;;;;;;21.58;63.44;102005.28;5014972;28;20053;-75
2021/07/16 03:40:18;;;;;;;5.78;3.17;;;;;;;21.58;63.54;102004.44;5015563;28;20381;-76
2021/07/16 03:42:44;;;;;;;5.22;2.80;;;;;;;21.54;63.33;102002.03;5015125;28;20540;-75
2021/07/16 03:45:15;;;;;;;5.57;3.30;;;;;;;21.55;63.45;101994.91;5015857;28;20032;-75
2021/07/16 03:47:42;;;;;;;6.70;3.10;;;;;;;21.56;63.45;102010.69;5014855;28;20449;-76
2021/07/16 03:50:10;;;;;;;5.47;2.88;;;;;;;21.54;63.53;102002.03;5015683;28;20037;-76
2021/07/16 03:52:35;;;;;;;5.65;2.72;;;;;;;21.55;63.18;101995.75;5015560;28;20030;-77
2021/07/16 03:55:05;;;;;;;6.30;3.38;;;;;;;21.54;63.27;101995.88;5014943;28;20037;-75
2021/07/16 03:57:30;;;;;;;7.18;3.40;;;;;;;21.55;63.40;102005.50;5015080;28;20033;-76
2021/07/16 03:59:56;;;;;;;6.72;3.42;;;;;;;21.55;63.19;102002.84;5015500;28;20030;-77
2021/07/16 04:02:22;;;;;;;6.68;3.13;;;;;;;21.54;63.13;102006.50;5014413;28;20057;-76
2021/07/16 04:04:54;;;;;;;5.30;3.10;;;;;;;21.54;63.09;102007.31;5015449;28;20514;-75
2021/07/16 04:07:25;;;;;;;7.40;2.92;;;;;;;21.54;63.32;102017.09;5014838;28;20037;-76
2021/07/16 04:09:50;;;;;;;7.53;3.10;;;;;;;21.54;63.08;102022.41;5014276;28;20157;-76
2021/07/16 04:12:18;;;;;;;5.63;2.97;;;;;;;21.54;63.29;102027.72;5014987;28;20473;-75
2021/07/16 04:14:48;;;;;;;6.75;3.08;;;;;;;21.54;62.90;102030.38;5014959;28;20280;-74
2021/07/16 04:17:19;;;;;;;6.97;3.42;;;;;;;21.54;63.22;102043.63;5013832;28;20120;-75
2021/07/16 04:19:45;;;;;;;5.80;3.08;;;;;;;21.53;63.14;102047.22;5014946;28;20048;-76
2021/07/16 04:22:11;;;;;;;6.65;3.20;;;;;;;21.53;63.08;102048.06;5014831;28;20060;-76
2021/07/16 04:24:39;;;;;;;5.82;3.33;;;;;;;21.52;62.96;102051.69;5013792;28;20536;-76
2021/07/16 04:27:08;;;;;;;7.38;4.10;;;;;;;21.53;63.13;102045.41;5014508;28;20034;-76
2021/07/16 04:29:34;;;;;;;6.78;3.05;;;;;;;21.52;62.99;102046.38;5014561;28;20107;-74
2021/07/16 04:32:00;;;;;;;5.32;3.05;;;;;;;21.49;62.72;102043.97;5013757;28;20026;-75
2021/07/16 04:34:32;;;;;;;6.20;3.30;;;;;;;21.46;62.91;102048.63;5014086;28;20548;-74
2021/07/16 04:36:58;;;;;;;5.65;3.28;;;;;;;21.51;62.69;102057.13;5013866;28;20032;-76
2021/07/16 04:39:27;;;;;;;7.10;3.28;;;;;;;21.51;63.00;102057.94;5013621;28;20033;-75
2021/07/16 04:41:53;;;;;;;5.63;3.05;;;;;;;21.50;63.01;102050.94;5014780;28;20026;-75
2021/07/16 04:44:22;;;;;;;5.78;3.10;;;;;;;21.50;62.67;102055.41;5013337;28;20029;-76
2021/07/16 04:46:48;;;;;;;6.85;3.22;;;;;;;21.51;62.84;102055.31;5014316;28;20057;-75
2021/07/16 04:49:14;;;;;;;6.75;3.33;;;;;;;21.50;62.68;102058.91;5014333;28;20022;-75
2021/07/16 04:51:39;;;;;;;6.15;3.28;;;;;;;21.48;62.80;102066.13;5013846;28;20025;-76
2021/07/16 04:54:06;;;;;;;6.07;2.85;;;;;;;21.49;62.82;102066.97;5014167;28;20029;-75
2021/07/16 04:56:32;;;;;;;6.90;3.22;;;;;;;21.47;62.87;102069.72;5014004;28;20044;-75
2021/07/16 04:58:58;;;;;;;6.18;3.22;;;;;;;21.50;62.67;102073.97;5013418;28;20030;-75
2021/07/16 05:01:26;;;;;;;5.78;3.30;;;;;;;21.49;62.73;102070.50;5013742;28;20053;-76
2021/07/16 05:03:52;;;;;;;7.10;3.55;;;;;;;21.49;62.46;102072.28;5014062;28;20033;-76
2021/07/16 05:06:18;;;;;;;5.45;3.10;;;;;;;21.49;62.75;102074.94;5013020;28;20056;-75
2021/07/16 05:08:44;;;;;;;5.20;3.17;;;;;;;21.47;62.75;102076.84;5013981;28;20101;-76
2021/07/16 05:11:10;;;;;;;9.07;3.15;;;;;;;21.46;62.37;102075.13;5014120;28;20018;-75
2021/07/16 05:13:37;;;;;;;8.07;3.28;;;;;;;21.44;62.55;102072.59;5012789;28;20389;-76
2021/07/16 05:16:03;;;;;;;4.97;3.00;;;;;;;21.47;62.28;102080.31;5014205;28;20022;-75
2021/07/16 05:18:28;;;;;;;5.13;3.30;;;;;;;21.45;62.24;102081.41;5013382;28;20022;-76
2021/07/16 05:20:54;;;;;;;6.80;3.03;;;;;;;21.46;62.43;102083.09;5013040;28;20176;-75
2021/07/16 05:23:19;;;;;;;7.45;3.70;;;;;;;21.47;62.39;102084.78;5013394;28;20044;-74
2021/07/16 05:25:44;;;;;;;8.13;3.50;;;;;;;21.47;62.40;102087.44;5014131;28;20029;-75
2021/07/16 05:28:09;;;;;;;6.03;2.97;;;;;;;21.47;62.48;102092.75;5012859;28;20781;-74
2021/07/16 05:30:35;;;;;;;6.20;3.10;;;;;;;21.46;62.13;102083.09;5013506;28;20030;-74
2021/07/16 05:33:00;;;;;;;5.78;3.08;;;;;;;21.46;62.15;102093.69;5013097;28;20072;-76
2021/07/16 05:35:25;;;;;;;6.05;2.95;;;;;;;21.44;62.22;102091.16;5012799;28;20378;-77
2021/07/16 05:37:51;;;;;;;5.95;2.97;;;;;;;21.45;62.28;102092.03;5013701;28;20026;-75
2021/07/16 05:40:18;;;;;;;4.90;2.97;;;;;;;21.45;62.44;102097.34;5012429;28;20428;-75
2021/07/16 05:42:43;;;;;;;6.57;3.10;;;;;;;21.45;62.14;102103.47;5013523;28;20033;-75
2021/07/16 05:45:09;;;;;;;6.20;3.15;;;;;;;21.44;62.65;102111.53;5013769;28;20022;-75
2021/07/16 05:47:34;;;;;;;5.40;2.58;;;;;;;21.43;62.32;102096.59;5011963;28;20099;-75
2021/07/16 05:49:59;;;;;;;6.20;2.92;;;;;;;21.43;62.25;102104.53;5012973;28;20104;-76
2021/07/16 05:52:26;;;;;;;5.53;3.00;;;;;;;21.43;62.11;102101.88;5013009;28;20105;-76
2021/07/16 05:54:54;;;;;;;6.55;3.13;;;;;;;21.44;62.29;102096.47;5012706;28;20068;-78
2021/07/16 05:57:20;;;;;;;8.13;3.20;;;;;;;21.42;62.22;102101.06;5012841;28;20033;-76
2021/07/16 05:59:45;;;;;;;5.68;2.97;;;;;;;21.44;62.25;102109.72;5013254;28;20033;-75
2021/07/16 06:02:11;;;;;;;7.40;3.63;;;;;;;21.43;62.07;102113.34;5011874;28;20482;-77
2021/07/16 06:04:39;;;;;;;5.22;2.85;;;;;;;21.44;62.13;102115.03;5012680;28;20036;-77
2021/07/16 06:07:05;;;;;;;5.32;2.70;;;;;;;21.45;61.81;102110.59;5012837;28;20030;-75
2021/07/16 06:09:30;;;;;;;7.72;3.60;;;;;;;21.43;62.18;102112.50;5012626;28;20026;-76
2021/07/16 06:11:56;;;;;;;7.78;3.10;;;;;;;21.44;61.83;102112.38;5013600;28;20049;-74
2021/07/16 06:14:30;;;;;;;6.55;2.60;;;;;;;21.44;61.89;102111.53;5013191;28;20025;-74
2021/07/16 06:16:56;;;;;;;8.05;3.15;;;;;;;21.40;61.59;102100.31;5012547;28;20025;-76
2021/07/16 06:19:21;;;;;;;7.20;3.10;;;;;;;21.43;61.92;102110.72;5013051;28;20101;-76
2021/07/16 06:21:46;;;;;;;6.60;3.30;;;;;;;21.43;61.78;102109.84;5013154;28;20034;-76
2021/07/16 06:24:12;;;;;;;7.28;3.30;;;;;;;21.43;61.84;102115.16;5012927;28;20073;-76
2021/07/16 06:26:37;;;;;;;7.55;3.53;;;;;;;21.43;61.82;102125.75;5013100;28;20069;-74
2021/07/16 06:29:04;;;;;;;6.70;2.92;;;;;;;21.44;61.97;102127.47;5013895;28;20030;-74
2021/07/16 06:31:30;;;;;;;7.30;3.38;;;;;;;21.43;61.73;102126.63;5012416;28;20033;-73
2021/07/16 06:33:55;;;;;;;6.22;2.90;;;;;;;21.42;62.18;102122.25;5012746;28;20022;-84
2021/07/16 06:36:23;;;;;;;6.15;3.33;;;;;;;21.42;62.11;102132.03;5011689;28;20032;-74
2021/07/16 06:38:49;;;;;;;6.93;2.92;;;;;;;21.42;61.96;102134.69;5012741;28;20030;-71
2021/07/16 06:41:14;;;;;;;6.25;3.05;;;;;;;21.41;61.99;102133.00;5012879;28;20482;-71
2021/07/16 06:43:40;;;;;;;5.57;2.75;;;;;;;21.43;62.46;102136.38;5011531;28;20534;-72
2021/07/16 06:46:05;;;;;;;7.40;3.03;;;;;;;21.42;61.96;102132.88;5011784;28;20083;-72
2021/07/16 06:48:31;;;;;;;6.38;2.72;;;;;;;21.44;62.25;102125.63;5012179;28;20536;-70
2021/07/16 06:50:56;;;;;;;5.60;3.03;;;;;;;21.44;62.51;102122.16;5011621;28;20232;-71
2021/07/16 06:53:22;;;;;;;5.32;2.95;;;;;;;21.46;62.65;102133.47;5012185;28;20474;-73
2021/07/16 06:55:47;;;;;;;6.22;3.20;;;;;;;21.49;62.64;102131.50;5012272;28;20160;-71
2021/07/16 06:58:12;;;;;;;6.53;2.90;;;;;;;21.48;62.87;102124.50;5011878;28;20041;-70
2021/07/16 07:00:38;;;;;;;8.65;3.22;;;;;;;21.50;62.32;102127.03;5012223;28;20110;-71
2021/07/16 07:03:04;;;;;;;8.05;3.00;;;;;;;21.51;62.71;102140.19;5013705;28;20374;-71
2021/07/16 07:05:29;;;;;;;5.35;2.90;;;;;;;21.48;62.74;102131.59;5015509;28;20033;-73
2021/07/16 07:07:57;;;;;;;7.50;2.90;;;;;;;21.54;62.58;102144.41;5016378;28;20099;-72
2021/07/16 07:10:23;;;;;;;5.13;2.60;;;;;;;21.55;62.67;102135.47;5015642;28;20106;-72
2021/07/16 07:12:48;;;;;;;7.20;2.60;;;;;;;21.54;62.63;102133.81;5015847;28;20112;-76
2021/07/16 07:15:14;;;;;;;5.65;2.80;;;;;;;21.57;62.53;102149.50;5016342;28;20022;-73
2021/07/16 07:17:40;;;;;;;6.15;2.88;;;;;;;21.55;62.51;102143.44;5019076;28;20389;-77
2021/07/16 07:20:10;;;;;;;6.50;2.95;;;;;;;21.59;62.81;102160.81;5018833;28;20029;-77
2021/07/16 07:22:35;;;;;;;5.85;3.00;;;;;;;21.58;62.27;102155.63;5016259;28;20046;-70
2021/07/16 07:25:00;;;;;;;7.72;3.30;;;;;;;21.60;62.55;102153.69;5016207;28;20494;-78
2021/07/16 07:27:30;;;;;;;5.50;2.85;;;;;;;21.61;62.43;102163.34;5016013;28;20025;-70
2021/07/16 07:29:55;;;;;;;7.55;3.05;;;;;;;21.59;62.40;102158.16;5015248;28;20026;-68
2021/07/16 07:32:27;;;;;;;6.00;2.42;;;;;;;21.61;62.64;102155.41;5015385;28;20109;-71
2021/07/16 07:34:52;;;;;;;6.47;2.95;;;;;;;21.61;62.50;102155.41;5015278;28;20030;-70
2021/07/16 07:37:17;;;;;;;7.65;2.90;;;;;;;21.60;62.76;102157.19;5015173;28;20428;-70
2021/07/16 07:39:43;;;;;;;9.13;3.00;;;;;;;21.61;62.71;102158.06;5014650;28;20425;-71
2021/07/16 07:42:11;;;;;;;6.95;3.13;;;;;;;21.58;62.72;102159.13;5015281;28;20028;-69
2021/07/16 07:44:37;;;;;;;7.38;2.90;;;;;;;21.60;62.96;102159.00;5014858;28;20030;-70
2021/07/16 07:47:02;;;;;;;7.47;2.80;;;;;;;21.61;63.14;102158.88;5014295;28;20045;-69
2021/07/16 07:49:30;;;;;;;6.15;3.00;;;;;;;21.60;62.75;102159.00;5014882;28;20076;-69
2021/07/16 07:51:56;;;;;;;8.35;3.08;;;;;;;21.63;62.77;102166.72;5015159;28;20022;-69
2021/07/16 07:54:21;;;;;;;6.03;2.85;;;;;;;21.63;63.24;102167.56;5014103;28;20022;-69
2021/07/16 07:56:46;;;;;;;8.38;3.53;;;;;;;21.64;62.96;102166.63;5015127;28;20030;-69
2021/07/16 07:59:12;;;;;;;5.88;2.67;;;;;;;21.65;63.02;102167.44;5014978;28;20026;-72
2021/07/16 08:01:37;;;;;;;6.13;2.90;;;;;;;21.65;63.07;102167.44;5014668;28;20026;-72
2021/07/16 08:04:03;;;;;;;6.28;2.47;;;;;;;21.60;63.13;102159.00;5016175;28;20022;-76
2021/07/16 08:06:29;;;;;;;6.75;2.97;;;;;;;21.66;62.99;102171.81;5017070;28;20513;-75
2021/07/16 08:08:54;;;;;;;6.25;2.80;;;;;;;21.67;62.75;102181.47;5014946;28;20057;-71
2021/07/16 08:11:20;;;;;;;6.28;2.63;;;;;;;21.70;62.67;102189.19;5015100;28;20058;-70
2021/07/16 08:13:45;;;;;;;9.75;2.53;;;;;;;21.70;62.76;102179.41;5014774;28;20026;-71
2021/07/16 08:16:10;;;;;;;6.03;2.70;;;;;;;21.73;62.71;102188.97;5014458;28;20097;-74
2021/07/16 08:18:36;;;;;;;7.68;2.97;;;;;;;21.72;62.68;102181.97;5015719;28;20022;-78
2021/07/16 08:21:01;;;;;;;9.25;2.75;;;;;;;21.71;62.38;102190.88;5015373;28;20033;-81
2021/07/16 08:23:27;;;;;;;9.48;3.28;;;;;;;21.70;62.52;102194.50;5014773;28;20034;-73
2021/07/16 08:25:52;;;;;;;5.90;2.60;;;;;;;21.71;62.43;102186.44;5015309;28;20021;-81
2021/07/16 08:28:17;;;;;;;7.97;2.78;;;;;;;21.70;62.50;102194.50;5014584;28;20025;-74
2021/07/16 08:30:43;;;;;;;6.45;2.90;;;;;;;21.72;62.35;102193.41;5015073;28;20038;-82
2021/07/16 08:33:09;;;;;;;7.20;2.60;;;;;;;21.72;62.33;102198.72;5016341;28;20030;-79
2021/07/16 08:35:34;;;;;;;6.80;2.60;;;;;;;21.71;62.61;102196.19;5014739;28;20525;-82
2021/07/16 08:38:00;;;;;;;6.72;2.53;;;;;;;21.70;62.42;102195.34;5013917;28;20025;-78
2021/07/16 08:40:25;;;;;;;7.60;2.67;;;;;;;21.69;62.30;102195.47;5014170;28;20021;-73
2021/07/16 08:42:51;;;;;;;7.13;3.00;;;;;;;21.70;62.55;102195.34;5014233;28;20030;-77
2021/07/16 08:45:17;;;;;;;5.65;2.30;;;;;;;21.71;62.42;102199.69;5013877;28;20026;-72
2021/07/16 08:47:43;;;;;;;6.70;2.78;;;;;;;21.76;62.59;102207.28;5015421;28;20058;-74
2021/07/16 08:50:14;;;;;;;9.88;2.63;;;;;;;21.76;62.26;102201.97;5013865;28;20065;-75
2021/07/16 08:52:45;;;;;;;8.73;2.67;;;;;;;21.80;62.48;102206.09;5015793;28;20029;-76
2021/07/16 08:55:12;;;;;;;7.93;2.65;;;;;;;21.82;62.26;102211.28;5014796;28;20072;-72
2021/07/16 08:57:37;;;;;;;8.10;2.67;;;;;;;21.81;62.26;102213.09;5013549;28;20034;-76
2021/07/16 09:00:06;;;;;;;5.55;2.35;;;;;;;21.83;62.25;102215.66;5014559;28;20021;-73
2021/07/16 09:02:32;;;;;;;11.13;2.90;;;;;;;21.83;62.32;102218.31;5014065;28;20030;-75
2021/07/16 09:05:00;;;;;;;8.38;2.65;;;;;;;21.82;62.21;102222.75;5013518;28;20049;-77
2021/07/16 09:07:26;;;;;;;6.93;2.63;;;;;;;21.81;62.76;102218.41;5014017;28;20044;-80
2021/07/16 09:10:04;;;;;;;7.32;2.40;;;;;;;21.85;62.11;102219.03;5014270;28;20064;-75
2021/07/16 09:12:34;;;;;;;7.30;2.55;;;;;;;21.86;62.49;102216.25;5013139;28;20414;-77
2021/07/16 09:14:59;;;;;;;10.82;2.47;;;;;;;21.86;62.56;102218.06;5014257;28;20034;-77
2021/07/16 09:17:26;;;;;;;10.05;3.10;;;;;;;21.87;62.65;102214.44;5015175;28;20022;-74
2021/07/16 09:19:52;;;;;;;9.07;2.78;;;;;;;21.85;62.21;102211.91;5013876;28;20029;-80
2021/07/16 09:22:27;;;;;;;6.03;2.50;;;;;;;21.85;62.09;102219.03;5016051;28;20028;-76
2021/07/16 09:24:59;;;;;;;7.22;2.35;;;;;;;21.84;62.11;102218.19;5014503;28;20160;-77
2021/07/16 09:27:40;;;;;;;7.60;2.60;;;;;;;21.82;62.19;102216.59;5014918;28;20033;-79
2021/07/16 09:30:23;;;;;;;7.20;2.60;;;;;;;21.80;62.48;102224.69;5014537;28;20026;-82
2021/07/16 09:32:53;;;;;;;7.90;2.70;;;;;;;21.81;62.29;102234.34;5013626;28;20021;-78
2021/07/16 09:35:25;;;;;;;6.65;2.60;;;;;;;21.82;62.55;102229.88;5013412;28;20025;-74
2021/07/16 09:38:05;;;;;;;8.73;2.50;;;;;;;21.81;62.35;102234.34;5014293;28;20113;-81
2021/07/16 09:40:39;;;;;;;12.98;2.88;;;;;;;21.74;62.12;102228.63;5013166;28;20057;-75
2021/07/16 09:43:09;;;;;;;8.18;2.75;;;;;;;21.83;62.14;102236.88;5013521;28;20421;-75
2021/07/16 09:45:38;;;;;;;8.75;3.50;;;;;;;21.80;62.02;102245.06;5013776;28;20054;-76
2021/07/16 09:48:28;;;;;;;7.05;2.17;;;;;;;21.82;62.19;102243.97;5013195;28;20034;-73
2021/07/16 09:51:10;;;;;;;7.53;2.65;;;;;;;21.82;62.24;102240.47;5014080;28;20101;-75
2021/07/16 09:53:48;;;;;;;6.75;2.10;;;;;;;21.83;62.18;102236.88;5012592;28;20034;-74
2021/07/16 09:56:22;;;;;;;10.55;2.63;;;;;;;21.83;62.11;102229.75;5013536;28;20022;-75
2021/07/16 09:58:49;;;;;;;;;;;;;;;21.83;62.14;102237.72;5014114;28;20401;-68
2021/07/16 10:01:15;;;;;;;11.75;2.50;;;;;;;21.82;61.65;102237.81;5013008;28;20257;-74
2021/07/16 10:03:42;;;;;;;6.03;2.35;;;;;;;21.84;61.93;102246.50;5014016;28;20092;-81
2021/07/16 10:06:11;;;;;;;8.48;2.28;;;;;;;21.82;61.78;102236.00;5013261;28;20026;-69
2021/07/16 10:08:37;;;;;;;7.72;2.13;;;;;;;21.81;61.94;102244.94;5012566;28;20038;-71
2021/07/16 10:11:09;;;;;;;8.57;2.50;;;;;;;21.78;61.65;102247.84;5013314;28;20029;-73
2021/07/16 10:13:39;;;;;;;7.65;2.58;;;;;;;21.77;61.43;102248.78;5013037;28;20025;-72
2021/07/16 10:16:05;;;;;;;8.10;2.53;;;;;;;21.74;61.49;102241.88;5012507;28;20026;-72
2021/07/16 10:18:30;;;;;;;7.35;2.58;;;;;;;21.76;61.72;102243.59;5012668;28;20033;-72
2021/07/16 10:20:59;;;;;;;10.13;2.67;;;;;;;21.76;61.62;102249.72;5013086;28;20032;-70
2021/07/16 10:23:25;;;;;;;6.63;2.45;;;;;;;21.76;61.72;102254.22;5012221;28;20057;-72
2021/07/16 10:25:51;;;;;;;9.60;2.25;;;;;;;21.79;61.54;102256.63;5013357;28;20022;-76
2021/07/16 10:28:30;;;;;;;8.15;2.65;;;;;;;21.80;61.74;102247.72;5013647;28;20057;-72
2021/07/16 10:30:55;;;;;;;9.90;3.28;;;;;;;21.80;61.35;102255.69;5013317;28;20427;-75
2021/07/16 10:33:36;;;;;;;8.48;2.33;;;;;;;21.79;61.28;102252.16;5012937;28;20028;-73
2021/07/16 10:36:03;;;;;;;9.63;2.75;;;;;;;21.82;61.70;102262.53;5012095;28;20105;-81
2021/07/16 10:38:33;;;;;;;7.78;2.55;;;;;;;21.82;61.64;102262.53;5015084;28;20048;-73
2021/07/16 10:41:00;;;;;;;7.95;2.25;;;;;;;21.80;61.34;102255.69;5017769;28;20049;-72
2021/07/16 10:43:25;;;;;;;7.38;2.30;;;;;;;21.81;61.52;102260.88;5016190;28;20022;-73
2021/07/16 10:45:51;;;;;;;7.57;2.40;;;;;;;21.79;61.12;102260.13;5016906;28;20042;-73
2021/07/16 10:48:19;;;;;;;5.80;2.58;;;;;;;21.80;61.54;102269.78;5017119;28;20071;-72
2021/07/16 10:50:47;;;;;;;9.80;2.85;;;;;;;21.80;61.40;102266.28;5016529;28;20041;-75
2021/07/16 10:53:16;;;;;;;10.40;2.90;;;;;;;21.79;61.83;102269.91;5018158;28;20466;-74
2021/07/16 10:55:42;;;;;;;9.25;2.70;;;;;;;21.81;61.72;102287.41;5017582;28;20484;-75
2021/07/16 10:58:17;;;;;;;7.77;2.73;;;;;;;21.79;61.46;102289.31;5017605;28;20034;-66
2021/07/16 11:00:49;;;;;;;7.78;2.90;;;;;;;21.81;61.60;102300.69;5018108;28;20105;-74
2021/07/16 11:03:33;;;;;;;10.48;2.75;;;;;;;21.77;61.43;102280.63;5018064;28;20033;-76
2021/07/16 11:05:58;;;;;;;9.68;3.00;;;;;;;21.81;61.47;102292.72;5016884;28;20113;-73
2021/07/16 11:08:28;;;;;;;8.48;2.63;;;;;;;21.82;61.71;102294.38;5019448;28;20037;-75
2021/07/16 11:11:16;;;;;;;7.75;2.55;;;;;;;21.83;61.22;102288.13;5017561;28;20076;-76
2021/07/16 11:13:45;;;;;;;10.30;3.00;;;;;;;21.84;61.52;102283.66;5018887;28;20030;-74
2021/07/16 11:16:32;;;;;;;9.73;3.38;;;;;;;21.86;61.42;102284.41;5019209;28;20030;-74
2021/07/16 11:19:04;;;;;;;5.47;2.42;;;;;;;21.85;61.56;102290.69;5019178;28;20548;-74
2021/07/16 11:21:41;;;;;;;7.80;2.45;;;;;;;21.85;61.58;102290.69;5017814;28;20026;-77
2021/07/16 11:26:55;;;;;;;9.93;2.53;;;;;;;21.81;61.39;102284.75;5017465;28;20041;-73
2021/07/16 11:29:27;;;;;;;7.53;2.90;;;;;;;21.81;61.71;102282.09;5016883;28;20101;-76